General Aviation Weather

Text Reports

Enter one or more of the following location identifiers separated by a space:

Zip Code, Four-Character ICAO or Three-Character IATA airport codes.

METAR - Aviation Routine Weather Report
KGLR - Gaylord, Michigan
Updated at 8:53 AM GMT en Octubre 31, 2014 (4:53 AM EDT):
METAR KGLR 310853Z AUTO 00000KT 8SM -RA BKN008 OVC021 03/02 A2987 RMK AO2 SLP126 P0002 60005 T00280017 56003
TAF - Terminal Area Forecast
KGLR - Gaylord, Michigan
Updated at 8:53 AM GMT en Octubre 31, 2014 (4:53 AM EDT):
No TAF is currently available for this location.
Decoded:
No decoded TAF is available.
PIREP - Pilot Weather Report
KGLR - Gaylord, Michigan
Updated at 8:53 AM GMT en Octubre 31, 2014 (4:53 AM EDT):
No PIREP is currently available for this location.
AIRMET - Airmens Meteorological Information
KGLR - Gaylord, Michigan
Updated at 8:53 AM GMT en Octubre 31, 2014 (4:53 AM EDT):
No AIRMET is currently available for this location.
SIGMET - Significant Meteorological Information
KGLR - Gaylord, Michigan
Updated at 8:53 AM GMT en Octubre 31, 2014 (4:53 AM EDT):
No SIGMET is currently available for this location.
NOTAM - Notice to Airmen
KGLR - Gaylord, Michigan
Updated at 8:53 AM GMT en Octubre 31, 2014 (4:53 AM EDT):
No NOTAM is currently available for this location.
Forecast Area
KGLR - Gaylord, Michigan
Updated at 8:53 AM GMT en Octubre 31, 2014 (4:53 AM EDT):
No NOTAM is currently available for this location.
Aviation Weather Maps